createdAt,value
2018-12-26T00:01:12.961Z,1.67
2018-12-26T00:03:38.958Z,1.66
2018-12-26T00:06:05.080Z,1.68
2018-12-26T00:08:31.146Z,1.69
2018-12-26T00:10:57.064Z,1.73
2018-12-26T00:13:23.172Z,1.73
2018-12-26T00:15:49.298Z,1.76
2018-12-26T00:18:15.417Z,1.78
2018-12-26T00:20:41.310Z,1.79
2018-12-26T00:23:07.483Z,1.82
2018-12-26T00:25:33.498Z,1.84
2018-12-26T00:27:59.425Z,1.87
2018-12-26T00:30:25.516Z,1.91
2018-12-26T00:32:51.467Z,1.93
2018-12-26T00:35:17.389Z,1.95
2018-12-26T00:37:43.352Z,1.98
2018-12-26T00:40:09.405Z,2.00
2018-12-26T00:42:35.315Z,2.01
2018-12-26T00:45:01.503Z,2.03
2018-12-26T00:47:27.458Z,2.06
2018-12-26T00:49:53.349Z,2.08
2018-12-26T00:52:19.502Z,2.12
2018-12-26T00:54:45.442Z,2.12
2018-12-26T00:57:11.444Z,2.14
2018-12-26T00:59:37.537Z,2.17
2018-12-26T01:02:03.420Z,2.18
2018-12-26T01:04:29.355Z,2.21
2018-12-26T01:06:55.582Z,2.22
2018-12-26T01:09:21.486Z,2.23
2018-12-26T01:11:47.413Z,2.26
2018-12-26T01:14:13.523Z,2.26
2018-12-26T01:16:39.653Z,2.27
2018-12-26T01:19:05.647Z,2.28
2018-12-26T01:21:31.759Z,2.29
2018-12-26T01:23:57.764Z,2.29
2018-12-26T01:26:23.829Z,2.30
2018-12-26T01:28:50.088Z,2.31
2018-12-26T01:31:15.992Z,2.32
2018-12-26T01:33:41.919Z,2.33
2018-12-26T01:36:07.961Z,2.33
2018-12-26T01:38:33.890Z,2.34
2018-12-26T01:40:59.920Z,2.36
2018-12-26T01:43:26.171Z,2.38
2018-12-26T01:45:52.055Z,2.41
2018-12-26T01:48:18.006Z,2.40
2018-12-26T01:50:43.982Z,2.42
2018-12-26T01:53:09.895Z,2.44
2018-12-26T01:55:35.950Z,2.45
2018-12-26T01:58:02.159Z,2.49
2018-12-26T02:00:28.089Z,2.50
2018-12-26T02:02:54.238Z,2.54
2018-12-26T02:05:20.363Z,2.58
2018-12-26T02:07:46.263Z,2.61
2018-12-26T02:10:12.172Z,2.63
2018-12-26T02:12:38.437Z,2.65
2018-12-26T02:15:04.945Z,2.66
2018-12-26T02:17:31.060Z,2.67
2018-12-26T02:19:57.555Z,2.67
2018-12-26T02:22:24.437Z,2.68
2018-12-26T02:24:50.319Z,2.66
2018-12-26T02:27:16.536Z,2.66
2018-12-26T02:29:42.422Z,2.64
2018-12-26T02:32:08.376Z,2.63
2018-12-26T02:34:34.647Z,2.60
2018-12-26T02:37:00.611Z,2.61
2018-12-26T02:39:26.682Z,2.60
2018-12-26T02:41:52.963Z,2.59
2018-12-26T02:44:19.097Z,2.58
2018-12-26T02:46:45.003Z,2.55
2018-12-26T02:49:11.205Z,2.54
2018-12-26T02:51:37.129Z,2.51
2018-12-26T02:54:03.073Z,2.52
2018-12-26T02:56:29.422Z,2.53
2018-12-26T02:58:55.329Z,2.53
2018-12-26T03:01:21.244Z,2.54
2018-12-26T03:03:47.454Z,2.56
2018-12-26T03:06:13.476Z,2.56
2018-12-26T03:08:39.369Z,2.58
2018-12-26T03:11:05.544Z,2.58
2018-12-26T03:13:31.672Z,2.58
2018-12-26T03:15:57.677Z,2.57
2018-12-26T03:18:23.904Z,2.56
2018-12-26T03:20:49.915Z,2.56
2018-12-26T03:23:15.930Z,2.54
2018-12-26T03:25:42.036Z,2.55
2018-12-26T03:28:07.941Z,2.54
2018-12-26T03:30:33.868Z,2.53
2018-12-26T03:33:00.018Z,2.52
2018-12-26T03:35:26.145Z,2.50
2018-12-26T03:37:52.065Z,2.50
2018-12-26T03:40:18.349Z,2.48
2018-12-26T03:42:44.324Z,2.47
2018-12-26T03:45:11.189Z,2.47
2018-12-26T03:47:38.191Z,2.46
2018-12-26T03:50:06.078Z,2.46
2018-12-26T03:52:32.187Z,2.45
2018-12-26T03:54:58.550Z,2.43
2018-12-26T03:57:24.686Z,2.40
2018-12-26T03:59:50.688Z,2.39
2018-12-26T04:02:16.968Z,2.39
2018-12-26T04:04:43.113Z,2.38
2018-12-26T04:07:09.092Z,2.38
2018-12-26T04:09:35.363Z,2.38
2018-12-26T04:12:01.325Z,2.39
2018-12-26T04:14:27.216Z,2.39
2018-12-26T04:16:53.368Z,2.36
2018-12-26T04:19:19.413Z,2.36
2018-12-26T04:21:45.348Z,2.35
2018-12-26T04:24:11.684Z,2.35
2018-12-26T04:26:37.629Z,2.34
2018-12-26T04:29:03.532Z,2.34
2018-12-26T04:31:29.572Z,2.36
2018-12-26T04:33:55.722Z,2.36
2018-12-26T04:36:21.644Z,2.37
2018-12-26T04:38:47.757Z,2.39
2018-12-26T04:41:13.680Z,2.39
2018-12-26T04:43:39.635Z,2.40
2018-12-26T04:46:05.716Z,2.41
2018-12-26T04:48:31.628Z,2.43
2018-12-26T04:50:57.526Z,2.44
2018-12-26T04:53:23.715Z,2.44
2018-12-26T04:55:49.630Z,2.45
2018-12-26T04:58:15.614Z,2.44
2018-12-26T05:00:41.814Z,2.44
2018-12-26T05:03:07.910Z,2.45
2018-12-26T05:05:34.041Z,2.45
2018-12-26T05:08:00.191Z,2.45
2018-12-26T05:10:26.128Z,2.46
2018-12-26T05:12:52.234Z,2.46
2018-12-26T05:15:18.633Z,2.46
2018-12-26T05:17:44.700Z,2.47
2018-12-26T05:20:10.694Z,2.48
2018-12-26T05:22:36.882Z,2.51
2018-12-26T05:25:03.697Z,2.51
2018-12-26T05:27:34.095Z,2.53
2018-12-26T05:29:57.880Z,2.53
2018-12-26T05:32:23.803Z,2.54
2018-12-26T05:34:49.810Z,2.55
2018-12-26T05:37:16.000Z,2.56
2018-12-26T05:39:42.055Z,2.56
2018-12-26T05:42:07.935Z,2.56
2018-12-26T05:44:34.640Z,2.58
2018-12-26T05:47:00.520Z,2.57
2018-12-26T05:49:26.456Z,2.58
2018-12-26T05:51:52.768Z,2.57
2018-12-26T05:54:18.667Z,2.57
2018-12-26T05:56:44.556Z,2.58
2018-12-26T05:59:10.581Z,2.59
2018-12-26T06:01:36.609Z,2.60
2018-12-26T06:04:02.705Z,2.58
2018-12-26T06:06:28.884Z,2.59
2018-12-26T06:08:54.792Z,2.58
2018-12-26T06:11:20.718Z,2.58
2018-12-26T06:13:46.776Z,2.58
2018-12-26T06:16:12.702Z,2.57
2018-12-26T06:18:38.601Z,2.57
2018-12-26T06:21:04.687Z,2.58
2018-12-26T06:23:30.631Z,2.58
2018-12-26T06:25:56.506Z,2.58
2018-12-26T06:28:22.515Z,2.58
2018-12-26T06:30:48.435Z,2.58
2018-12-26T06:33:14.517Z,2.59
2018-12-26T06:35:40.559Z,2.58
2018-12-26T06:38:06.450Z,2.59
2018-12-26T06:40:32.371Z,2.59
2018-12-26T06:42:58.474Z,2.59
2018-12-26T06:45:24.508Z,2.60
2018-12-26T06:47:50.417Z,2.60
2018-12-26T06:50:16.491Z,2.60
2018-12-26T06:52:42.376Z,2.61
2018-12-26T06:55:08.410Z,2.61
2018-12-26T06:57:34.621Z,2.62
2018-12-26T07:00:00.521Z,2.65
2018-12-26T07:02:26.448Z,2.64
2018-12-26T07:04:52.596Z,2.65
2018-12-26T07:07:18.500Z,2.65
2018-12-26T07:09:44.429Z,2.64
2018-12-26T07:12:10.620Z,2.66
2018-12-26T07:14:36.541Z,2.65
2018-12-26T07:17:02.449Z,2.65
2018-12-26T07:19:28.583Z,2.65
2018-12-26T07:21:54.475Z,2.67
2018-12-26T07:24:20.523Z,2.68
2018-12-26T07:26:46.667Z,2.70
2018-12-26T07:29:12.595Z,2.72
2018-12-26T07:31:38.614Z,2.74
2018-12-26T07:34:04.816Z,2.73
2018-12-26T07:36:30.713Z,2.74
2018-12-26T07:38:56.644Z,2.76
2018-12-26T07:41:22.803Z,2.77
2018-12-26T07:43:48.717Z,2.77
2018-12-26T07:46:14.596Z,2.77
2018-12-26T07:48:40.700Z,2.77
2018-12-26T07:51:06.606Z,2.78
2018-12-26T07:53:32.508Z,2.78
2018-12-26T07:55:58.565Z,2.78
2018-12-26T07:58:24.509Z,2.77
2018-12-26T08:00:50.419Z,2.77
2018-12-26T08:03:16.582Z,2.78
2018-12-26T08:05:42.494Z,2.78
2018-12-26T08:08:08.410Z,2.78
2018-12-26T08:10:34.553Z,2.77
2018-12-26T08:13:00.489Z,2.74
2018-12-26T08:15:26.504Z,2.73
2018-12-26T08:17:52.662Z,2.70
2018-12-26T08:20:18.634Z,2.71
2018-12-26T08:22:44.525Z,2.68
2018-12-26T08:25:10.582Z,2.66
2018-12-26T08:27:36.617Z,2.64
2018-12-26T08:30:02.830Z,2.63
2018-12-26T08:32:28.898Z,2.60
2018-12-26T08:34:54.825Z,2.59
2018-12-26T08:37:20.726Z,2.56
2018-12-26T08:39:46.892Z,2.54
2018-12-26T08:42:12.890Z,2.54
2018-12-26T08:44:38.924Z,2.51
2018-12-26T08:47:05.162Z,2.50
2018-12-26T08:49:31.072Z,2.49
2018-12-26T08:51:57.078Z,2.49
2018-12-26T08:54:23.262Z,2.47
2018-12-26T08:56:49.267Z,2.47
2018-12-26T08:59:15.277Z,2.47
2018-12-26T09:01:41.341Z,2.46
2018-12-26T09:04:07.301Z,2.46
2018-12-26T09:06:33.191Z,2.45
2018-12-26T09:08:59.365Z,2.44
2018-12-26T09:11:25.274Z,2.44
2018-12-26T09:13:51.216Z,2.44
2018-12-26T09:16:17.289Z,2.43
2018-12-26T09:18:43.301Z,2.43
2018-12-26T09:21:09.204Z,2.40
2018-12-26T09:23:35.169Z,2.40
2018-12-26T09:26:01.118Z,2.40
2018-12-26T09:28:27.256Z,2.41
2018-12-26T09:30:53.405Z,2.42
2018-12-26T09:33:19.305Z,2.45
2018-12-26T09:35:45.208Z,2.45
2018-12-26T09:38:11.409Z,2.43
2018-12-26T09:40:37.826Z,2.42
2018-12-26T09:43:03.799Z,2.41
2018-12-26T09:45:29.943Z,2.40
2018-12-26T09:47:55.872Z,2.39
2018-12-26T09:50:21.905Z,2.38
2018-12-26T09:52:48.116Z,2.36
2018-12-26T09:55:14.000Z,2.34
2018-12-26T09:57:39.991Z,2.32
2018-12-26T10:00:08.040Z,2.31
2018-12-26T10:02:33.952Z,2.32
2018-12-26T10:04:59.885Z,2.32
2018-12-26T10:07:26.201Z,2.32
2018-12-26T10:09:52.083Z,2.33
2018-12-26T10:12:18.007Z,2.33
2018-12-26T10:14:44.092Z,2.34
2018-12-26T10:17:09.978Z,2.34
2018-12-26T10:19:35.923Z,2.35
2018-12-26T10:22:02.808Z,2.35
2018-12-26T10:24:29.011Z,2.34
2018-12-26T10:26:54.935Z,2.34
2018-12-26T10:29:21.146Z,2.34
2018-12-26T10:31:47.067Z,2.09
2018-12-26T10:34:12.993Z,2.35
2018-12-26T10:36:39.205Z,2.35
2018-12-26T10:39:05.298Z,2.34
2018-12-26T10:41:31.242Z,2.33
2018-12-26T10:43:57.374Z,2.32
2018-12-26T10:46:24.324Z,2.32
2018-12-26T10:48:50.223Z,2.31
2018-12-26T10:51:16.289Z,2.29
2018-12-26T10:53:42.322Z,2.30
2018-12-26T10:56:08.244Z,2.28
2018-12-26T10:58:34.434Z,2.28
2018-12-26T11:01:00.368Z,2.28
2018-12-26T11:03:26.265Z,2.25
2018-12-26T11:05:52.410Z,2.23
2018-12-26T11:08:18.320Z,2.22
2018-12-26T11:10:44.342Z,2.22
2018-12-26T11:13:10.532Z,1.97
2018-12-26T11:15:36.553Z,2.22
2018-12-26T11:18:03.242Z,2.23
2018-12-26T11:20:29.348Z,2.22
2018-12-26T11:22:55.407Z,2.22
2018-12-26T11:25:21.444Z,2.21
2018-12-26T11:27:47.593Z,2.20
2018-12-26T11:30:13.626Z,2.19
2018-12-26T11:32:39.639Z,2.19
2018-12-26T11:35:06.646Z,2.18
2018-12-26T11:37:32.553Z,2.19
2018-12-26T11:39:58.580Z,2.20
2018-12-26T11:42:24.852Z,2.20
2018-12-26T11:44:50.749Z,2.19
2018-12-26T11:47:16.657Z,2.19
2018-12-26T11:49:42.835Z,2.19
2018-12-26T11:52:08.947Z,2.17
2018-12-26T11:54:34.892Z,2.16
2018-12-26T11:57:01.058Z,2.15
2018-12-26T11:59:27.563Z,2.13
2018-12-26T12:01:53.572Z,2.12
2018-12-26T12:04:20.057Z,2.11
2018-12-26T12:06:46.073Z,2.07
2018-12-26T12:09:12.249Z,1.98
2018-12-26T12:11:38.491Z,2.03
2018-12-26T12:14:04.418Z,2.01
2018-12-26T12:16:30.507Z,2.00
2018-12-26T12:18:56.774Z,1.99
2018-12-26T12:21:22.975Z,2.00
2018-12-26T12:23:48.885Z,2.00
2018-12-26T12:26:15.047Z,2.00
2018-12-26T12:28:40.968Z,2.00
2018-12-26T12:31:06.910Z,1.98
2018-12-26T12:33:33.023Z,1.98
2018-12-26T12:35:59.170Z,1.99
2018-12-26T12:38:25.310Z,1.99
2018-12-26T12:40:51.416Z,1.99
2018-12-26T12:43:17.550Z,1.98
2018-12-26T12:45:43.693Z,1.97
2018-12-26T12:48:09.884Z,1.96
2018-12-26T12:50:35.999Z,1.94
2018-12-26T12:53:01.950Z,1.93
2018-12-26T12:55:28.186Z,1.91
2018-12-26T12:57:54.185Z,1.90
2018-12-26T13:00:20.325Z,1.89
2018-12-26T13:02:46.698Z,1.89
2018-12-26T13:05:12.611Z,1.87
2018-12-26T13:07:38.832Z,1.87
2018-12-26T13:10:05.142Z,1.86
2018-12-26T13:12:31.049Z,1.84
2018-12-26T13:14:57.121Z,1.82
2018-12-26T13:17:24.042Z,1.79
2018-12-26T13:19:49.962Z,1.77
2018-12-26T13:22:15.847Z,1.77
2018-12-26T13:24:42.077Z,1.74
2018-12-26T13:27:08.125Z,1.72
2018-12-26T13:29:34.104Z,1.36
2018-12-26T13:32:00.262Z,1.70
2018-12-26T13:34:26.140Z,1.70
2018-12-26T13:36:52.046Z,1.70
2018-12-26T13:39:18.168Z,1.70
2018-12-26T13:41:44.118Z,1.68
2018-12-26T13:44:10.038Z,1.67
2018-12-26T13:46:36.103Z,1.63
2018-12-26T13:49:02.135Z,1.61
2018-12-26T13:51:28.084Z,1.60
2018-12-26T13:53:54.149Z,1.60
2018-12-26T13:56:20.262Z,1.60
2018-12-26T13:58:46.164Z,1.59
2018-12-26T14:01:12.595Z,1.58
2018-12-26T14:03:38.586Z,1.54
2018-12-26T14:06:04.508Z,1.52
2018-12-26T14:08:30.566Z,1.50
2018-12-26T14:10:56.476Z,1.50
2018-12-26T14:13:22.418Z,1.49
2018-12-26T14:15:48.640Z,1.49
2018-12-26T14:18:14.520Z,1.45
2018-12-26T14:20:40.434Z,1.44
2018-12-26T14:23:06.541Z,1.42
2018-12-26T14:25:32.448Z,1.39
2018-12-26T14:27:58.474Z,1.38
2018-12-26T14:30:24.619Z,1.35
2018-12-26T14:32:50.519Z,1.31
2018-12-26T14:35:16.455Z,1.29
2018-12-26T14:37:42.552Z,1.26
2018-12-26T14:40:08.563Z,1.24
2018-12-26T14:42:34.469Z,1.22
2018-12-26T14:45:00.630Z,1.19
2018-12-26T14:47:26.573Z,1.19
2018-12-26T14:49:52.492Z,1.18
2018-12-26T14:52:18.869Z,1.17
2018-12-26T14:54:45.484Z,1.18
2018-12-26T14:57:11.428Z,1.17
2018-12-26T14:59:38.405Z,1.18
2018-12-26T15:02:04.628Z,1.19
2018-12-26T15:04:30.555Z,1.19
2018-12-26T15:06:56.559Z,1.18
2018-12-26T15:09:22.477Z,1.19
2018-12-26T15:11:48.389Z,1.18
2018-12-26T15:14:14.450Z,1.18
2018-12-26T15:16:40.378Z,1.18
2018-12-26T15:19:15.106Z,1.16
2018-12-26T15:21:41.247Z,1.15
2018-12-26T15:24:07.165Z,1.11
2018-12-26T15:26:33.101Z,1.09
2018-12-26T15:28:59.211Z,1.06
2018-12-26T15:31:25.147Z,1.07
2018-12-26T15:33:51.102Z,1.04
2018-12-26T15:36:17.237Z,1.03
2018-12-26T15:38:43.263Z,0.99
2018-12-26T15:41:09.274Z,0.97
2018-12-26T15:43:35.485Z,0.93
2018-12-26T15:46:01.491Z,0.92
2018-12-26T15:48:27.501Z,0.90
2018-12-26T15:50:53.613Z,0.89
2018-12-26T15:53:19.563Z,0.84
2018-12-26T15:55:45.467Z,0.83
2018-12-26T15:58:11.692Z,0.83
2018-12-26T16:00:37.896Z,0.82
2018-12-26T16:03:04.125Z,0.81
2018-12-26T16:05:30.214Z,0.81
2018-12-26T16:07:56.147Z,0.79
2018-12-26T16:10:22.061Z,0.77
2018-12-26T16:12:48.129Z,0.75
2018-12-26T16:15:14.157Z,0.74
2018-12-26T16:17:40.263Z,0.72
2018-12-26T16:20:07.959Z,0.70
2018-12-26T16:22:33.929Z,0.67
2018-12-26T16:24:59.833Z,0.66
2018-12-26T16:27:26.000Z,0.63
2018-12-26T16:29:51.917Z,0.62
2018-12-26T16:32:17.815Z,0.62
2018-12-26T16:34:44.005Z,0.61
2018-12-26T16:37:10.029Z,0.60
2018-12-26T16:39:36.128Z,0.58
2018-12-26T16:42:02.291Z,0.58
2018-12-26T16:44:28.298Z,0.58
2018-12-26T16:46:54.388Z,0.57
2018-12-26T16:49:21.529Z,0.58
2018-12-26T16:51:47.458Z,0.58
2018-12-26T16:54:13.410Z,0.60
2018-12-26T16:56:39.495Z,0.62
2018-12-26T16:59:05.497Z,0.63
2018-12-26T17:01:31.412Z,0.63
2018-12-26T17:03:57.893Z,0.63
2018-12-26T17:06:23.791Z,0.64
2018-12-26T17:08:49.817Z,0.66
2018-12-26T17:11:16.136Z,0.66
2018-12-26T17:13:42.057Z,0.67
2018-12-26T17:16:07.950Z,0.68
2018-12-26T17:18:34.257Z,0.68
2018-12-26T17:21:00.169Z,0.70
2018-12-26T17:23:26.075Z,0.70
2018-12-26T17:25:52.243Z,0.70
2018-12-26T17:28:18.176Z,0.70
2018-12-26T17:30:44.287Z,0.70
2018-12-26T17:33:10.369Z,0.70
2018-12-26T17:35:36.330Z,0.70
2018-12-26T17:38:02.215Z,0.70
2018-12-26T17:40:28.261Z,0.69
2018-12-26T17:42:54.296Z,0.67
2018-12-26T17:45:21.400Z,0.66
2018-12-26T17:47:47.928Z,0.65
2018-12-26T17:50:37.000Z,0.63
2018-12-26T17:53:03.291Z,0.60
2018-12-26T17:56:05.046Z,0.56
2018-12-26T17:58:40.715Z,0.55
2018-12-26T18:01:28.349Z,0.52
2018-12-26T18:03:54.525Z,0.51
2018-12-26T18:06:20.941Z,0.49
2018-12-26T18:08:46.823Z,0.48
2018-12-26T18:11:12.806Z,0.45
2018-12-26T18:13:38.840Z,0.44
2018-12-26T18:16:04.805Z,0.13
2018-12-26T18:18:30.976Z,0.38
2018-12-26T18:20:56.913Z,0.35
2018-12-26T18:23:22.945Z,0.32
2018-12-26T18:25:49.098Z,0.32
2018-12-26T18:28:15.154Z,0.29
2018-12-26T18:30:41.082Z,0.27
2018-12-26T18:33:07.209Z,0.24
2018-12-26T18:35:33.363Z,0.23
2018-12-26T18:37:59.518Z,0.21
2018-12-26T18:40:25.705Z,0.19
2018-12-26T18:42:51.651Z,0.17
2018-12-26T18:45:17.658Z,0.16
2018-12-26T18:47:43.978Z,0.17
2018-12-26T18:50:09.902Z,0.16
2018-12-26T18:52:35.947Z,0.13
2018-12-26T18:55:02.141Z,0.12
2018-12-26T18:57:28.043Z,0.09
2018-12-26T18:59:53.963Z,0.09
2018-12-26T19:02:19.982Z,0.06
2018-12-26T19:04:45.955Z,0.06
2018-12-26T19:07:12.235Z,0.03
2018-12-26T19:09:38.437Z,0.02
2018-12-26T19:12:04.371Z,-0.01
2018-12-26T19:14:30.281Z,-0.02
2018-12-26T19:16:56.589Z,-0.07
2018-12-26T19:19:22.492Z,-0.07
2018-12-26T19:21:48.439Z,-0.09
2018-12-26T19:24:14.575Z,-0.08
2018-12-26T19:26:40.657Z,-0.08
2018-12-26T19:29:06.575Z,-0.07
2018-12-26T19:31:39.395Z,-0.06
2018-12-26T19:34:00.653Z,-0.06
2018-12-26T19:36:26.577Z,-0.06
2018-12-26T19:38:52.834Z,-0.04
2018-12-26T19:41:18.756Z,-0.04
2018-12-26T19:43:44.700Z,-0.06
2018-12-26T19:46:10.803Z,-0.06
2018-12-26T19:48:36.689Z,-0.05
2018-12-26T19:51:02.715Z,-0.04
2018-12-26T19:53:28.907Z,-0.03
2018-12-26T19:55:54.794Z,-0.03
2018-12-26T19:58:20.712Z,-0.02
2018-12-26T20:00:46.931Z,-0.01
2018-12-26T20:03:12.839Z,0.00
2018-12-26T20:05:38.844Z,0.03
2018-12-26T20:08:05.459Z,0.04
2018-12-26T20:10:31.460Z,-0.23
2018-12-26T20:12:57.371Z,0.07
2018-12-26T20:15:23.549Z,0.08
2018-12-26T20:17:49.626Z,0.10
2018-12-26T20:20:15.526Z,0.11
2018-12-26T20:22:41.685Z,0.13
2018-12-26T20:25:07.606Z,0.14
2018-12-26T20:27:33.511Z,0.15
2018-12-26T20:29:59.677Z,0.16
2018-12-26T20:32:25.586Z,0.18
2018-12-26T20:34:51.502Z,0.19
2018-12-26T20:37:17.610Z,0.20
2018-12-26T20:39:43.546Z,0.22
2018-12-26T20:42:09.467Z,0.23
2018-12-26T20:44:35.748Z,0.25
2018-12-26T20:47:01.793Z,0.26
2018-12-26T20:49:27.706Z,0.27
2018-12-26T20:51:53.757Z,0.29
2018-12-26T20:54:19.685Z,0.28
2018-12-26T20:56:45.688Z,0.28
2018-12-26T20:59:11.891Z,0.30
2018-12-26T21:01:37.915Z,0.30
2018-12-26T21:04:03.846Z,0.33
2018-12-26T21:06:30.017Z,0.34
2018-12-26T21:08:56.186Z,0.38
2018-12-26T21:11:22.094Z,0.39
2018-12-26T21:13:48.250Z,0.40
2018-12-26T21:16:14.169Z,0.41
2018-12-26T21:18:40.327Z,0.42
2018-12-26T21:21:06.404Z,0.43
2018-12-26T21:23:32.426Z,0.46
2018-12-26T21:25:58.533Z,0.48
2018-12-26T21:28:24.706Z,0.50
2018-12-26T21:30:50.604Z,0.53
2018-12-26T21:33:16.509Z,0.55
2018-12-26T21:35:42.612Z,0.56
2018-12-26T21:38:08.496Z,0.58
2018-12-26T21:40:34.654Z,0.61
2018-12-26T21:43:00.827Z,0.61
2018-12-26T21:45:26.719Z,0.63
2018-12-26T21:47:52.764Z,0.64
2018-12-26T21:50:18.941Z,0.66
2018-12-26T21:52:44.867Z,0.69
2018-12-26T21:55:10.780Z,0.69
2018-12-26T21:57:36.884Z,0.72
2018-12-26T22:00:03.130Z,0.70
2018-12-26T22:02:29.021Z,0.69
2018-12-26T22:04:55.053Z,0.69
2018-12-26T22:07:20.970Z,0.68
2018-12-26T22:09:47.112Z,0.69
2018-12-26T22:12:13.253Z,0.72
2018-12-26T22:14:39.236Z,0.74
2018-12-26T22:17:05.164Z,0.75
2018-12-26T22:19:31.339Z,0.76
2018-12-26T22:21:57.283Z,0.77
2018-12-26T22:24:23.202Z,0.77
2018-12-26T22:26:49.308Z,0.79
2018-12-26T22:29:15.206Z,0.81
2018-12-26T22:31:41.159Z,0.82
2018-12-26T22:34:07.434Z,0.84
2018-12-26T22:36:33.279Z,0.83
2018-12-26T22:38:59.449Z,0.84
2018-12-26T22:41:25.615Z,0.84
2018-12-26T22:43:51.502Z,0.83
2018-12-26T22:46:17.531Z,0.85
2018-12-26T22:48:43.747Z,0.88
2018-12-26T22:51:09.690Z,0.88
2018-12-26T22:53:35.574Z,0.92
2018-12-26T22:56:01.688Z,0.93
2018-12-26T22:58:27.597Z,0.95
2018-12-26T23:00:53.701Z,0.71
2018-12-26T23:03:19.933Z,1.00
2018-12-26T23:05:45.833Z,1.03
2018-12-26T23:08:11.730Z,1.03
2018-12-26T23:10:38.249Z,1.06
2018-12-26T23:13:04.418Z,1.05
2018-12-26T23:15:30.322Z,1.07
2018-12-26T23:17:56.512Z,1.08
2018-12-26T23:20:22.660Z,1.11
2018-12-26T23:22:48.564Z,1.11
2018-12-26T23:25:14.646Z,1.12
2018-12-26T23:27:40.567Z,1.12
2018-12-26T23:30:06.552Z,1.13
2018-12-26T23:32:32.749Z,1.14
2018-12-26T23:34:58.662Z,1.15
2018-12-26T23:37:24.695Z,1.16
2018-12-26T23:39:50.870Z,1.19
2018-12-26T23:42:16.819Z,1.19
2018-12-26T23:44:42.771Z,1.20
2018-12-26T23:47:08.861Z,1.19
2018-12-26T23:49:34.876Z,1.21
2018-12-26T23:52:00.814Z,1.22
2018-12-26T23:54:26.977Z,1.23
2018-12-26T23:56:52.917Z,1.25
2018-12-26T23:59:18.842Z,1.28
